sensor_id;sensor_type;location;lat;lon;timestamp;pressure;altitude;pressure_sealevel;temperature;humidity
59487;BME280;45298;54.918;73.504;2023-02-28T00:01:55;100061.78;;;-4.43;90.78
59487;BME280;45298;54.918;73.504;2023-02-28T00:04:23;100075.59;;;-4.33;90.49
59487;BME280;45298;54.918;73.504;2023-02-28T00:06:52;100066.06;;;-4.39;90.79
59487;BME280;45298;54.918;73.504;2023-02-28T00:09:22;100091.13;;;-4.33;90.57
59487;BME280;45298;54.918;73.504;2023-02-28T00:11:50;100054.88;;;-4.47;90.94
59487;BME280;45298;54.918;73.504;2023-02-28T00:14:19;100049.69;;;-4.50;90.65
59487;BME280;45298;54.918;73.504;2023-02-28T00:16:48;100065.22;;;-4.50;90.67
59487;BME280;45298;54.918;73.504;2023-02-28T00:19:17;100040.19;;;-4.59;90.81
59487;BME280;45298;54.918;73.504;2023-02-28T00:21:45;100072.97;;;-4.35;90.68
59487;BME280;45298;54.918;73.504;2023-02-28T00:24:14;100001.38;;;-4.78;90.86
59487;BME280;45298;54.918;73.504;2023-02-28T00:26:43;100053.13;;;-4.44;90.39
59487;BME280;45298;54.918;73.504;2023-02-28T00:29:12;100057.44;;;-4.43;90.62
59487;BME280;45298;54.918;73.504;2023-02-28T00:31:40;100051.41;;;-4.40;90.00
59487;BME280;45298;54.918;73.504;2023-02-28T00:34:11;100029.81;;;-4.50;90.00
59487;BME280;45298;54.918;73.504;2023-02-28T00:36:39;100044.50;;;-4.38;90.33
59487;BME280;45298;54.918;73.504;2023-02-28T00:39:12;100065.22;;;-4.22;90.01
59487;BME280;45298;54.918;73.504;2023-02-28T00:41:41;100023.78;;;-4.38;90.40
59487;BME280;45298;54.918;73.504;2023-02-28T00:44:09;100025.53;;;-4.32;89.85
59487;BME280;45298;54.918;73.504;2023-02-28T00:46:38;100046.19;;;-4.15;90.18
59487;BME280;45298;54.918;73.504;2023-02-28T00:49:07;99971.19;;;-4.63;89.93
59487;BME280;45298;54.918;73.504;2023-02-28T00:51:36;100041.88;;;-4.16;89.81
59487;BME280;45298;54.918;73.504;2023-02-28T00:54:05;100037.56;;;-4.14;89.97
59487;BME280;45298;54.918;73.504;2023-02-28T00:56:34;100016.00;;;-4.21;89.80
59487;BME280;45298;54.918;73.504;2023-02-28T00:59:04;100039.25;;;-4.12;89.75
59487;BME280;45298;54.918;73.504;2023-02-28T01:01:32;100002.16;;;-4.18;89.50
59487;BME280;45298;54.918;73.504;2023-02-28T01:04:01;100013.38;;;-4.10;89.62
59487;BME280;45298;54.918;73.504;2023-02-28T01:06:31;100003.00;;;-4.10;89.45
59487;BME280;45298;54.918;73.504;2023-02-28T01:09:01;99995.22;;;-4.12;89.67
59487;BME280;45298;54.918;73.504;2023-02-28T01:11:31;100012.50;;;-4.04;89.30
59487;BME280;45298;54.918;73.504;2023-02-28T01:14:00;100000.44;;;-4.10;89.39
59487;BME280;45298;54.918;73.504;2023-02-28T01:16:30;99935.78;;;-4.44;89.28
59487;BME280;45298;54.918;73.504;2023-02-28T01:18:59;99989.19;;;-4.09;89.31
59487;BME280;45298;54.918;73.504;2023-02-28T01:21:30;99985.75;;;-4.05;89.20
59487;BME280;45298;54.918;73.504;2023-02-28T01:23:59;99998.66;;;-4.00;88.95
59487;BME280;45298;54.918;73.504;2023-02-28T01:26:27;99911.59;;;-4.48;89.29
59487;BME280;45298;54.918;73.504;2023-02-28T01:28:56;99990.06;;;-4.04;89.04
59487;BME280;45298;54.918;73.504;2023-02-28T01:31:26;99963.31;;;-4.17;88.79
59487;BME280;45298;54.918;73.504;2023-02-28T01:33:55;99968.47;;;-4.11;88.83
59487;BME280;45298;54.918;73.504;2023-02-28T01:36:28;99946.09;;;-4.26;88.57
59487;BME280;45298;54.918;73.504;2023-02-28T01:38:57;99959.84;;;-4.17;88.71
59487;BME280;45298;54.918;73.504;2023-02-28T01:41:29;99955.53;;;-4.18;89.01
59487;BME280;45298;54.918;73.504;2023-02-28T01:46:49;99975.41;;;-4.17;88.79
59487;BME280;45298;54.918;73.504;2023-02-28T01:49:18;99958.16;;;-4.28;88.46
59487;BME280;45298;54.918;73.504;2023-02-28T01:51:54;99951.28;;;-4.32;88.36
59487;BME280;45298;54.918;73.504;2023-02-28T01:54:31;99940.94;;;-4.33;88.65
59487;BME280;45298;54.918;73.504;2023-02-28T01:57:10;99971.09;;;-4.21;88.56
59487;BME280;45298;54.918;73.504;2023-02-28T01:59:42;99971.94;;;-4.19;87.79
59487;BME280;45298;54.918;73.504;2023-02-28T02:02:21;99934.88;;;-4.35;88.24
59487;BME280;45298;54.918;73.504;2023-02-28T02:05:05;99973.69;;;-4.23;88.14
59487;BME280;45298;54.918;73.504;2023-02-28T02:07:37;99945.25;;;-4.35;88.01
59487;BME280;45298;54.918;73.504;2023-02-28T02:10:21;99949.53;;;-4.23;88.48
59487;BME280;45298;54.918;73.504;2023-02-28T02:15:24;99961.59;;;-4.21;87.99
59487;BME280;45298;54.918;73.504;2023-02-28T02:17:57;99940.91;;;-4.32;87.90
59487;BME280;45298;54.918;73.504;2023-02-28T02:30:08;99938.31;;;-4.30;87.70
59487;BME280;45298;54.918;73.504;2023-02-28T02:35:46;99918.53;;;-4.45;87.33
59487;BME280;45298;54.918;73.504;2023-02-28T02:41:15;99933.16;;;-4.35;86.68
59487;BME280;45298;54.918;73.504;2023-02-28T02:46:33;99906.44;;;-4.49;86.60
59487;BME280;45298;54.918;73.504;2023-02-28T02:49:08;99925.38;;;-4.38;86.77
59487;BME280;45298;54.918;73.504;2023-02-28T02:51:39;99829.75;;;-4.91;86.74
59487;BME280;45298;54.918;73.504;2023-02-28T02:54:25;99923.66;;;-4.39;86.40
59487;BME280;45298;54.918;73.504;2023-02-28T02:57:00;99914.19;;;-4.43;86.32
59487;BME280;45298;54.918;73.504;2023-02-28T02:59:30;99854.72;;;-4.70;86.08
59487;BME280;45298;54.918;73.504;2023-02-28T03:02:03;99875.38;;;-4.59;86.39
59487;BME280;45298;54.918;73.504;2023-02-28T03:04:37;99884.00;;;-4.53;86.42
59487;BME280;45298;54.918;73.504;2023-02-28T03:07:08;99880.56;;;-4.56;86.48
59487;BME280;45298;54.918;73.504;2023-02-28T03:09:37;99877.13;;;-4.61;86.06
59487;BME280;45298;54.918;73.504;2023-02-28T03:12:11;99882.28;;;-4.55;86.08
59487;BME280;45298;54.918;73.504;2023-02-28T03:14:55;99880.59;;;-4.62;86.65
59487;BME280;45298;54.918;73.504;2023-02-28T03:20:12;99873.69;;;-4.63;86.85
59487;BME280;45298;54.918;73.504;2023-02-28T03:26:06;99887.47;;;-4.51;86.80
59487;BME280;45298;54.918;73.504;2023-02-28T03:33:23;99845.25;;;-4.72;87.22
59487;BME280;45298;54.918;73.504;2023-02-28T03:36:01;99865.91;;;-4.64;87.74
59487;BME280;45298;54.918;73.504;2023-02-28T03:38:55;99859.91;;;-4.62;87.34
59487;BME280;45298;54.918;73.504;2023-02-28T03:41:32;99869.38;;;-4.59;88.08
59487;BME280;45298;54.918;73.504;2023-02-28T03:44:15;99847.84;;;-4.72;88.41
59487;BME280;45298;54.918;73.504;2023-02-28T03:47:12;99868.50;;;-4.60;88.42
59487;BME280;45298;54.918;73.504;2023-02-28T03:49:54;99830.59;;;-4.76;88.20
59487;BME280;45298;54.918;73.504;2023-02-28T03:52:28;99837.47;;;-4.66;88.06
59487;BME280;45298;54.918;73.504;2023-02-28T03:55:02;99846.94;;;-4.60;88.49
59487;BME280;45298;54.918;73.504;2023-02-28T04:00:17;99837.41;;;-4.57;87.98
59487;BME280;45298;54.918;73.504;2023-02-28T04:02:48;99819.34;;;-4.61;88.29
59487;BME280;45298;54.918;73.504;2023-02-28T04:05:21;99802.94;;;-4.60;88.24
59487;BME280;45298;54.918;73.504;2023-02-28T04:07:50;99802.06;;;-4.61;88.13
59487;BME280;45298;54.918;73.504;2023-02-28T04:10:20;99797.72;;;-4.56;88.76
59487;BME280;45298;54.918;73.504;2023-02-28T04:12:51;99802.88;;;-4.45;87.96
59487;BME280;45298;54.918;73.504;2023-02-28T04:15:21;99815.72;;;-4.26;88.35
59487;BME280;45298;54.918;73.504;2023-02-28T04:17:53;99786.41;;;-4.30;88.10
59487;BME280;45298;54.918;73.504;2023-02-28T04:20:22;99808.78;;;-4.18;87.80
59487;BME280;45298;54.918;73.504;2023-02-28T04:22:51;99770.00;;;-4.29;87.84
59487;BME280;45298;54.918;73.504;2023-02-28T04:25:20;99787.19;;;-4.21;87.80
59487;BME280;45298;54.918;73.504;2023-02-28T04:27:49;99818.16;;;-3.97;88.01
59487;BME280;45298;54.918;73.504;2023-02-28T04:30:18;99820.69;;;-3.92;87.76
59487;BME280;45298;54.918;73.504;2023-02-28T04:32:47;99797.44;;;-4.00;87.79
59487;BME280;45298;54.918;73.504;2023-02-28T04:35:16;99773.25;;;-4.02;87.27
59487;BME280;45298;54.918;73.504;2023-02-28T04:37:44;99785.34;;;-3.96;87.34
59487;BME280;45298;54.918;73.504;2023-02-28T04:40:13;99758.59;;;-4.01;87.49
59487;BME280;45298;54.918;73.504;2023-02-28T04:42:42;99800.72;;;-3.73;87.41
59487;BME280;45298;54.918;73.504;2023-02-28T04:45:11;99781.72;;;-3.75;87.07
59487;BME280;45298;54.918;73.504;2023-02-28T04:47:40;99768.78;;;-3.76;86.89
59487;BME280;45298;54.918;73.504;2023-02-28T04:50:09;99776.47;;;-3.66;87.27
59487;BME280;45298;54.918;73.504;2023-02-28T04:52:38;99779.84;;;-3.57;86.57
59487;BME280;45298;54.918;73.504;2023-02-28T04:55:07;99793.53;;;-3.38;86.08
59487;BME280;45298;54.918;73.504;2023-02-28T04:57:39;99765.03;;;-3.44;86.13
59487;BME280;45298;54.918;73.504;2023-02-28T05:00:11;99757.25;;;-3.43;86.08
59487;BME280;45298;54.918;73.504;2023-02-28T05:02:41;99768.44;;;-3.38;86.04
59487;BME280;45298;54.918;73.504;2023-02-28T05:05:10;99743.41;;;-3.42;86.11
59487;BME280;45298;54.918;73.504;2023-02-28T05:07:40;99763.19;;;-3.28;86.38
59487;BME280;45298;54.918;73.504;2023-02-28T05:10:10;99771.66;;;-3.14;86.29
59487;BME280;45298;54.918;73.504;2023-02-28T05:12:39;99751.94;;;-3.27;85.14
59487;BME280;45298;54.918;73.504;2023-02-28T05:15:12;99745.88;;;-3.28;86.02
59487;BME280;45298;54.918;73.504;2023-02-28T05:17:42;99748.41;;;-3.23;85.70
59487;BME280;45298;54.918;73.504;2023-02-28T05:20:12;99755.25;;;-3.16;85.55
59487;BME280;45298;54.918;73.504;2023-02-28T05:22:45;99738.88;;;-3.20;85.54
59487;BME280;45298;54.918;73.504;2023-02-28T05:25:19;99732.75;;;-3.14;85.69
59487;BME280;45298;54.918;73.504;2023-02-28T05:27:49;99735.34;;;-3.14;85.35
59487;BME280;45298;54.918;73.504;2023-02-28T05:30:19;99738.88;;;-3.20;85.41
59487;BME280;45298;54.918;73.504;2023-02-28T05:32:50;99709.59;;;-3.32;85.00
59487;BME280;45298;54.918;73.504;2023-02-28T05:35:19;99722.56;;;-3.29;85.33
59487;BME280;45298;54.918;73.504;2023-02-28T05:37:49;99717.34;;;-3.26;84.89
59487;BME280;45298;54.918;73.504;2023-02-28T05:40:18;99701.81;;;-3.29;84.77
59487;BME280;45298;54.918;73.504;2023-02-28T05:42:51;99712.81;;;-3.09;84.92
59487;BME280;45298;54.918;73.504;2023-02-28T05:45:20;99700.81;;;-3.17;84.65
59487;BME280;45298;54.918;73.504;2023-02-28T05:47:49;99686.19;;;-3.25;84.34
59487;BME280;45298;54.918;73.504;2023-02-28T05:50:21;99628.63;;;-3.58;84.33
59487;BME280;45298;54.918;73.504;2023-02-28T05:52:52;99672.38;;;-3.25;84.36
59487;BME280;45298;54.918;73.504;2023-02-28T05:55:21;99693.03;;;-3.19;84.37
59487;BME280;45298;54.918;73.504;2023-02-28T05:57:50;99699.78;;;-3.04;84.20
59487;BME280;45298;54.918;73.504;2023-02-28T06:00:19;99611.16;;;-3.42;83.68
59487;BME280;45298;54.918;73.504;2023-02-28T06:02:48;99669.50;;;-3.04;84.09
59487;BME280;45298;54.918;73.504;2023-02-28T06:05:18;99686.59;;;-2.89;83.84
59487;BME280;45298;54.918;73.504;2023-02-28T06:07:47;99640.94;;;-3.04;83.65
59487;BME280;45298;54.918;73.504;2023-02-28T06:10:16;99642.56;;;-2.93;83.44
59487;BME280;45298;54.918;73.504;2023-02-28T06:12:45;99651.84;;;-2.77;83.88
59487;BME280;45298;54.918;73.504;2023-02-28T06:15:14;99645.84;;;-2.82;83.40
59487;BME280;45298;54.918;73.504;2023-02-28T06:17:45;99648.31;;;-2.71;83.28
59487;BME280;45298;54.918;73.504;2023-02-28T06:20:13;99620.59;;;-2.67;83.35
59487;BME280;45298;54.918;73.504;2023-02-28T06:22:42;99642.72;;;-2.43;83.06
59487;BME280;45298;54.918;73.504;2023-02-28T06:25:11;99598.94;;;-2.68;82.84
59487;BME280;45298;54.918;73.504;2023-02-28T06:27:40;99622.06;;;-2.51;83.56
59487;BME280;45298;54.918;73.504;2023-02-28T06:30:10;99625.34;;;-2.39;83.09
59487;BME280;45298;54.918;73.504;2023-02-28T06:32:39;99588.44;;;-2.60;82.75
59487;BME280;45298;54.918;73.504;2023-02-28T06:35:08;99633.75;;;-2.23;82.96
59487;BME280;45298;54.918;73.504;2023-02-28T06:37:37;99625.91;;;-2.22;83.06
59487;BME280;45298;54.918;73.504;2023-02-28T06:40:09;99618.84;;;-2.12;82.85
59487;BME280;45298;54.918;73.504;2023-02-28T06:42:38;99620.41;;;-2.03;82.32
59487;BME280;45298;54.918;73.504;2023-02-28T06:45:07;99555.38;;;-2.49;81.94
59487;BME280;45298;54.918;73.504;2023-02-28T06:47:38;99607.69;;;-2.19;81.97
59487;BME280;45298;54.918;73.504;2023-02-28T06:50:10;99548.50;;;-2.53;81.93
59487;BME280;45298;54.918;73.504;2023-02-28T06:52:39;99623.19;;;-2.13;81.73
59487;BME280;45298;54.918;73.504;2023-02-28T06:55:08;99607.63;;;-2.16;81.55
59487;BME280;45298;54.918;73.504;2023-02-28T06:57:37;99578.28;;;-2.21;81.11
59487;BME280;45298;54.918;73.504;2023-02-28T07:00:09;99585.94;;;-2.13;81.42
59487;BME280;45298;54.918;73.504;2023-02-28T07:02:38;99585.00;;;-2.07;81.25
59487;BME280;45298;54.918;73.504;2023-02-28T07:05:07;99588.97;;;-1.89;81.39
59487;BME280;45298;54.918;73.504;2023-02-28T07:07:36;99569.94;;;-1.90;80.60
59487;BME280;45298;54.918;73.504;2023-02-28T07:10:10;99562.28;;;-1.98;80.14
59487;BME280;45298;54.918;73.504;2023-02-28T07:12:39;99566.53;;;-1.93;80.69
59487;BME280;45298;54.918;73.504;2023-02-28T07:15:09;99535.72;;;-2.14;80.74
59487;BME280;45298;54.918;73.504;2023-02-28T07:17:38;99564.06;;;-2.00;80.53
59487;BME280;45298;54.918;73.504;2023-02-28T07:20:08;99544.44;;;-2.18;80.64
59487;BME280;45298;54.918;73.504;2023-02-28T07:22:37;99547.03;;;-2.18;80.37
59487;BME280;45298;54.918;73.504;2023-02-28T07:25:09;99542.84;;;-2.25;80.53
59487;BME280;45298;54.918;73.504;2023-02-28T07:27:38;99547.19;;;-2.25;80.87
59487;BME280;45298;54.918;73.504;2023-02-28T07:30:09;99542.81;;;-2.23;80.64
59487;BME280;45298;54.918;73.504;2023-02-28T07:32:38;99532.38;;;-2.22;80.70
59487;BME280;45298;54.918;73.504;2023-02-28T07:35:09;99529.84;;;-2.25;80.67
59487;BME280;45298;54.918;73.504;2023-02-28T07:37:38;99527.25;;;-2.25;80.31
59487;BME280;45298;54.918;73.504;2023-02-28T07:40:10;99510.88;;;-2.29;80.31
59487;BME280;45298;54.918;73.504;2023-02-28T07:42:41;99528.81;;;-2.15;79.86
59487;BME280;45298;54.918;73.504;2023-02-28T07:45:11;99496.31;;;-2.37;79.85
59487;BME280;45298;54.918;73.504;2023-02-28T07:47:41;99526.25;;;-2.16;80.23
59487;BME280;45298;54.918;73.504;2023-02-28T07:50:13;99516.78;;;-2.20;79.88
59487;BME280;45298;54.918;73.504;2023-02-28T07:52:42;99534.84;;;-2.13;80.56
59487;BME280;45298;54.918;73.504;2023-02-28T07:55:11;99509.00;;;-2.22;80.25
59487;BME280;45298;54.918;73.504;2023-02-28T07:57:40;99527.78;;;-2.06;80.09
59487;BME280;45298;54.918;73.504;2023-02-28T08:00:11;99527.00;;;-2.09;80.66
59487;BME280;45298;54.918;73.504;2023-02-28T08:02:41;99514.19;;;-2.20;80.46
59487;BME280;45298;54.918;73.504;2023-02-28T08:05:10;99495.19;;;-2.24;80.32
59487;BME280;45298;54.918;73.504;2023-02-28T08:07:42;99495.13;;;-2.21;79.92
59487;BME280;45298;54.918;73.504;2023-02-28T08:10:11;99487.50;;;-2.29;80.86
59487;BME280;45298;54.918;73.504;2023-02-28T08:12:42;99520.19;;;-2.17;80.95
59487;BME280;45298;54.918;73.504;2023-02-28T08:15:11;99523.66;;;-2.18;80.66
59487;BME280;45298;54.918;73.504;2023-02-28T08:17:40;99470.34;;;-2.37;80.91
59487;BME280;45298;54.918;73.504;2023-02-28T08:20:10;99376.94;;;-2.91;80.81
59487;BME280;45298;54.918;73.504;2023-02-28T08:22:39;99477.13;;;-2.30;80.83
59487;BME280;45298;54.918;73.504;2023-02-28T08:25:08;99480.66;;;-2.34;81.00
59487;BME280;45298;54.918;73.504;2023-02-28T08:27:38;99475.53;;;-2.37;81.27
59487;BME280;45298;54.918;73.504;2023-02-28T08:30:11;99484.78;;;-2.24;80.97
59487;BME280;45298;54.918;73.504;2023-02-28T08:32:43;99451.38;;;-2.43;81.40
59487;BME280;45298;54.918;73.504;2023-02-28T08:35:13;99347.66;;;-2.97;81.32
59487;BME280;45298;54.918;73.504;2023-02-28T08:37:42;99454.59;;;-2.28;81.51
59487;BME280;45298;54.918;73.504;2023-02-28T08:40:11;99478.66;;;-2.18;81.01
59487;BME280;45298;54.918;73.504;2023-02-28T08:42:46;99455.41;;;-2.26;81.51
59487;BME280;45298;54.918;73.504;2023-02-28T08:45:15;99471.66;;;-2.15;81.95
59487;BME280;45298;54.918;73.504;2023-02-28T08:47:44;99458.75;;;-2.21;81.92
59487;BME280;45298;54.918;73.504;2023-02-28T08:50:13;99441.66;;;-2.31;81.88
59487;BME280;45298;54.918;73.504;2023-02-28T08:52:43;99449.31;;;-2.25;81.58
59487;BME280;45298;54.918;73.504;2023-02-28T08:55:12;99451.03;;;-2.24;81.91
59487;BME280;45298;54.918;73.504;2023-02-28T08:57:40;99443.38;;;-2.30;81.57
59487;BME280;45298;54.918;73.504;2023-02-28T09:00:10;99454.28;;;-2.13;82.12
59487;BME280;45298;54.918;73.504;2023-02-28T09:02:41;99429.44;;;-2.26;82.49
59487;BME280;45298;54.918;73.504;2023-02-28T09:05:12;99431.78;;;-2.14;81.96
59487;BME280;45298;54.918;73.504;2023-02-28T09:07:41;99411.78;;;-2.10;82.34
59487;BME280;45298;54.918;73.504;2023-02-28T09:10:10;99424.44;;;-1.94;81.76
59487;BME280;45298;54.918;73.504;2023-02-28T09:12:39;99403.09;;;-2.07;82.21
59487;BME280;45298;54.918;73.504;2023-02-28T09:15:08;99305.63;;;-2.69;82.25
59487;BME280;45298;54.918;73.504;2023-02-28T09:17:37;99403.16;;;-2.12;82.52
59487;BME280;45298;54.918;73.504;2023-02-28T09:20:07;99411.81;;;-2.11;82.79
59487;BME280;45298;54.918;73.504;2023-02-28T09:22:36;99436.78;;;-2.04;82.57
59487;BME280;45298;54.918;73.504;2023-02-28T09:25:06;99411.94;;;-2.16;83.24
59487;BME280;45298;54.918;73.504;2023-02-28T09:27:35;99399.00;;;-2.21;83.20
59487;BME280;45298;54.918;73.504;2023-02-28T09:30:06;99349.34;;;-2.48;83.55
59487;BME280;45298;54.918;73.504;2023-02-28T09:32:35;99404.09;;;-2.15;83.36
59487;BME280;45298;54.918;73.504;2023-02-28T09:35:04;99397.13;;;-2.14;83.38
59487;BME280;45298;54.918;73.504;2023-02-28T09:37:33;99405.84;;;-2.17;83.37
59487;BME280;45298;54.918;73.504;2023-02-28T09:40:02;99414.22;;;-2.01;83.81
59487;BME280;45298;54.918;73.504;2023-02-28T09:42:33;99371.31;;;-2.22;84.22
59487;BME280;45298;54.918;73.504;2023-02-28T09:45:27;99390.84;;;-2.02;84.36
59487;BME280;45298;54.918;73.504;2023-02-28T09:47:59;99397.56;;;-1.93;84.32
59487;BME280;45298;54.918;73.504;2023-02-28T09:53:31;99399.22;;;-1.88;84.30
59487;BME280;45298;54.918;73.504;2023-02-28T10:02:23;99379.97;;;-1.79;84.74
59487;BME280;45298;54.918;73.504;2023-02-28T10:05:11;99298.63;;;-2.23;84.47
59487;BME280;45298;54.918;73.504;2023-02-28T10:07:50;99377.03;;;-1.65;84.33
59487;BME280;45298;54.918;73.504;2023-02-28T10:10:43;99379.56;;;-1.62;84.78
59487;BME280;45298;54.918;73.504;2023-02-28T10:13:16;99377.84;;;-1.61;84.74
59487;BME280;45298;54.918;73.504;2023-02-28T10:15:52;99368.13;;;-1.55;84.51
59487;BME280;45298;54.918;73.504;2023-02-28T10:18:27;99363.81;;;-1.56;84.59
59487;BME280;45298;54.918;73.504;2023-02-28T10:20:59;99343.06;;;-1.57;84.50
59487;BME280;45298;54.918;73.504;2023-02-28T10:23:34;99357.59;;;-1.48;85.07
59487;BME280;45298;54.918;73.504;2023-02-28T10:26:14;99353.47;;;-1.57;85.20
59487;BME280;45298;54.918;73.504;2023-02-28T10:28:46;99339.00;;;-1.69;85.87
59487;BME280;45298;54.918;73.504;2023-02-28T10:31:18;99289.41;;;-1.99;85.43
59487;BME280;45298;54.918;73.504;2023-02-28T10:33:48;99341.31;;;-1.57;85.46
59487;BME280;45298;54.918;73.504;2023-02-28T10:36:20;99335.22;;;-1.56;85.51
59487;BME280;45298;54.918;73.504;2023-02-28T10:38:50;99319.75;;;-1.62;86.10
59487;BME280;45298;54.918;73.504;2023-02-28T10:41:29;99352.16;;;-1.39;86.30
59487;BME280;45298;54.918;73.504;2023-02-28T10:44:17;99354.88;;;-1.44;85.77
59487;BME280;45298;54.918;73.504;2023-02-28T10:46:49;99320.50;;;-1.57;86.12
59487;BME280;45298;54.918;73.504;2023-02-28T10:49:24;99333.31;;;-1.47;86.08
59487;BME280;45298;54.918;73.504;2023-02-28T10:51:56;99345.31;;;-1.43;86.00
59487;BME280;45298;54.918;73.504;2023-02-28T10:54:36;99352.16;;;-1.38;86.30
59487;BME280;45298;54.918;73.504;2023-02-28T10:57:22;99340.81;;;-1.37;86.46
59487;BME280;45298;54.918;73.504;2023-02-28T11:00:12;99353.81;;;-1.35;86.29
59487;BME280;45298;54.918;73.504;2023-02-28T11:02:42;99323.66;;;-1.44;86.28
59487;BME280;45298;54.918;73.504;2023-02-28T11:05:31;99342.47;;;-1.32;86.65
59487;BME280;45298;54.918;73.504;2023-02-28T11:08:17;99326.28;;;-1.45;86.31
59487;BME280;45298;54.918;73.504;2023-02-28T11:10:55;99327.19;;;-1.46;86.94
59487;BME280;45298;54.918;73.504;2023-02-28T11:13:34;99302.31;;;-1.57;86.93
59487;BME280;45298;54.918;73.504;2023-02-28T11:16:06;99321.97;;;-1.45;87.36
59487;BME280;45298;54.918;73.504;2023-02-28T11:18:54;99336.56;;;-1.39;86.87
59487;BME280;45298;54.918;73.504;2023-02-28T11:21:27;99327.03;;;-1.39;87.85
59487;BME280;45298;54.918;73.504;2023-02-28T11:24:12;99307.56;;;-1.60;87.25
59487;BME280;45298;54.918;73.504;2023-02-28T11:26:45;99314.34;;;-1.53;87.53
59487;BME280;45298;54.918;73.504;2023-02-28T11:29:27;99317.56;;;-1.43;87.48
59487;BME280;45298;54.918;73.504;2023-02-28T11:34:40;99298.09;;;-1.62;87.91
59487;BME280;45298;54.918;73.504;2023-02-28T11:37:18;99319.53;;;-1.53;88.44
59487;BME280;45298;54.918;73.504;2023-02-28T11:39:47;99310.06;;;-1.55;88.01
59487;BME280;45298;54.918;73.504;2023-02-28T11:48:21;99239.25;;;-2.03;88.31
59487;BME280;45298;54.918;73.504;2023-02-28T11:56:41;99308.63;;;-1.67;89.03
59487;BME280;45298;54.918;73.504;2023-02-28T12:02:08;99320.72;;;-1.66;88.77
59487;BME280;45298;54.918;73.504;2023-02-28T12:10:33;99303.94;;;-1.90;89.11
59487;BME280;45298;54.918;73.504;2023-02-28T12:13:28;99314.38;;;-1.92;89.92
59487;BME280;45298;54.918;73.504;2023-02-28T12:18:53;99321.47;;;-1.99;89.66
59487;BME280;45298;54.918;73.504;2023-02-28T12:26:49;99349.72;;;-1.85;90.38
59487;BME280;45298;54.918;73.504;2023-02-28T12:30:16;99307.91;;;-2.11;90.23
59487;BME280;45298;54.918;73.504;2023-02-28T12:32:32;99348.13;;;-1.89;90.27
59487;BME280;45298;54.918;73.504;2023-02-28T12:37:47;99348.13;;;-1.90;91.09
59487;BME280;45298;54.918;73.504;2023-02-28T12:40:22;99322.50;;;-2.06;91.00
59487;BME280;45298;54.918;73.504;2023-02-28T12:43:04;99354.38;;;-1.98;91.01
59487;BME280;45298;54.918;73.504;2023-02-28T12:45:47;99353.50;;;-1.98;91.01
59487;BME280;45298;54.918;73.504;2023-02-28T12:48:29;99348.31;;;-1.98;91.48
59487;BME280;45298;54.918;73.504;2023-02-28T12:51:00;99304.03;;;-2.34;91.44
59487;BME280;45298;54.918;73.504;2023-02-28T12:54:02;99351.84;;;-2.02;91.71
59487;BME280;45298;54.918;73.504;2023-02-28T12:59:35;99299.78;;;-2.37;91.81
59487;BME280;45298;54.918;73.504;2023-02-28T13:10:47;99355.50;;;-2.09;92.12
59487;BME280;45298;54.918;73.504;2023-02-28T13:13:27;99362.41;;;-2.08;92.27
59487;BME280;45298;54.918;73.504;2023-02-28T13:16:15;99322.09;;;-2.28;91.84
59487;BME280;45298;54.918;73.504;2023-02-28T13:18:46;99331.63;;;-2.27;92.15
59487;BME280;45298;54.918;73.504;2023-02-28T13:21:29;99340.09;;;-2.19;92.29
59487;BME280;45298;54.918;73.504;2023-02-28T13:24:04;99341.13;;;-2.26;92.47
59487;BME280;45298;54.918;73.504;2023-02-28T13:34:40;99345.28;;;-2.19;92.37
59487;BME280;45298;54.918;73.504;2023-02-28T13:39:54;99362.41;;;-2.10;92.46
59487;BME280;45298;54.918;73.504;2023-02-28T13:47:50;99343.78;;;-2.29;92.34
59487;BME280;45298;54.918;73.504;2023-02-28T14:00:59;99370.16;;;-2.07;92.04
59487;BME280;45298;54.918;73.504;2023-02-28T14:06:33;99364.88;;;-2.04;91.85
59487;BME280;45298;54.918;73.504;2023-02-28T14:09:05;99374.41;;;-2.04;92.30
59487;BME280;45298;54.918;73.504;2023-02-28T14:11:44;99361.50;;;-2.07;91.87
59487;BME280;45298;54.918;73.504;2023-02-28T14:17:15;99352.84;;;-2.08;91.61
59487;BME280;45298;54.918;73.504;2023-02-28T14:19:46;99350.31;;;-2.11;91.50
59487;BME280;45298;54.918;73.504;2023-02-28T14:22:38;99364.78;;;-1.99;91.62
59487;BME280;45298;54.918;73.504;2023-02-28T14:28:18;99377.78;;;-1.99;91.45
59487;BME280;45298;54.918;73.504;2023-02-28T14:36:33;99358.03;;;-2.06;91.77
59487;BME280;45298;54.918;73.504;2023-02-28T14:39:12;99330.81;;;-2.31;91.28
59487;BME280;45298;54.918;73.504;2023-02-28T14:41:43;99366.66;;;-2.06;91.75
59487;BME280;45298;54.918;73.504;2023-02-28T14:44:23;99353.91;;;-2.17;91.63
59487;BME280;45298;54.918;73.504;2023-02-28T14:46:55;99369.22;;;-2.04;91.75
59487;BME280;45298;54.918;73.504;2023-02-28T14:49:35;99370.94;;;-2.03;91.11
59487;BME280;45298;54.918;73.504;2023-02-28T14:54:44;99340.75;;;-2.09;91.39
59487;BME280;45298;54.918;73.504;2023-02-28T14:57:34;99362.97;;;-1.95;92.14
59487;BME280;45298;54.918;73.504;2023-02-28T15:02:43;99332.19;;;-2.14;91.37
59487;BME280;45298;54.918;73.504;2023-02-28T15:07:41;99342.44;;;-2.08;91.42
59487;BME280;45298;54.918;73.504;2023-02-28T15:12:58;99358.63;;;-1.95;91.34
59487;BME280;45298;54.918;73.504;2023-02-28T15:15:55;99340.03;;;-2.16;91.66
59487;BME280;45298;54.918;73.504;2023-02-28T15:26:39;99357.75;;;-1.95;91.61
59487;BME280;45298;54.918;73.504;2023-02-28T15:29:20;99352.69;;;-2.00;92.07
59487;BME280;45298;54.918;73.504;2023-02-28T15:31:56;99343.31;;;-2.07;91.94
59487;BME280;45298;54.918;73.504;2023-02-28T15:34:39;99321.06;;;-2.21;92.05
59487;BME280;45298;54.918;73.504;2023-02-28T15:37:33;99360.38;;;-1.95;92.11
59487;BME280;45298;54.918;73.504;2023-02-28T15:40:16;99366.31;;;-1.90;91.88
59487;BME280;45298;54.918;73.504;2023-02-28T15:43:05;99362.88;;;-1.91;91.16
59487;BME280;45298;54.918;73.504;2023-02-28T15:45:41;99353.41;;;-1.93;91.86
59487;BME280;45298;54.918;73.504;2023-02-28T15:48:20;99323.44;;;-2.10;91.67
59487;BME280;45298;54.918;73.504;2023-02-28T15:51:03;99327.91;;;-2.17;91.77
59487;BME280;45298;54.918;73.504;2023-02-28T15:53:59;99367.19;;;-1.90;91.97